createdAt,value
2022-09-22T00:00:10.591Z,87.22
2022-09-22T00:03:01.132Z,87.13
2022-09-22T00:05:31.521Z,87.20
2022-09-22T00:08:04.609Z,87.25
2022-09-22T00:10:36.641Z,87.37
2022-09-22T00:13:04.443Z,87.52
2022-09-22T00:15:36.294Z,87.53
2022-09-22T00:18:04.130Z,87.56
2022-09-22T00:20:31.812Z,87.55
2022-09-22T00:23:04.065Z,87.50
2022-09-22T00:25:36.028Z,87.23
2022-09-22T00:28:06.131Z,87.28
2022-09-22T00:30:45.612Z,87.38
2022-09-22T00:33:13.598Z,87.47
2022-09-22T00:35:44.076Z,87.42
2022-09-22T00:38:11.732Z,87.47
2022-09-22T00:40:42.123Z,87.59
2022-09-22T00:43:43.097Z,87.49
2022-09-22T00:46:32.242Z,87.74
2022-09-22T00:49:08.329Z,87.59
2022-09-22T00:51:43.954Z,87.32
2022-09-22T00:54:19.019Z,87.09
2022-09-22T00:57:06.643Z,87.13
2022-09-22T00:59:39.049Z,87.34
2022-09-22T01:02:10.944Z,87.41
2022-09-22T01:04:43.120Z,87.53
2022-09-22T01:07:15.410Z,87.58
2022-09-22T01:09:43.347Z,87.64
2022-09-22T01:12:15.181Z,87.65
2022-09-22T01:14:52.487Z,87.61
2022-09-22T01:17:38.665Z,87.45
2022-09-22T01:20:30.586Z,87.53
2022-09-22T01:23:35.282Z,87.49
2022-09-22T01:26:30.382Z,87.46
2022-09-22T01:29:38.022Z,87.70
2022-09-22T01:32:13.117Z,87.65
2022-09-22T01:35:13.322Z,87.45
2022-09-22T01:38:02.637Z,87.70
2022-09-22T01:40:53.234Z,87.76
2022-09-22T01:43:26.934Z,87.67
2022-09-22T01:46:01.257Z,87.81
2022-09-22T01:48:36.833Z,87.91
2022-09-22T01:51:22.355Z,87.90
2022-09-22T01:54:18.313Z,88.00
2022-09-22T01:56:56.749Z,88.20
2022-09-22T01:59:32.549Z,88.19
2022-09-22T02:02:37.966Z,88.12
2022-09-22T02:05:15.109Z,88.20
2022-09-22T02:07:50.113Z,88.32
2022-09-22T02:10:28.073Z,88.36
2022-09-22T02:12:56.031Z,88.20
2022-09-22T02:15:43.992Z,88.29
2022-09-22T02:18:25.228Z,88.26
2022-09-22T02:20:57.263Z,88.35
2022-09-22T02:23:25.812Z,88.49
2022-09-22T02:26:02.017Z,88.65
2022-09-22T02:28:37.895Z,88.62
2022-09-22T02:31:19.929Z,88.56
2022-09-22T02:33:56.559Z,88.65
2022-09-22T02:36:45.507Z,88.68
2022-09-22T02:39:30.431Z,88.63
2022-09-22T02:42:32.626Z,88.71
2022-09-22T02:45:09.547Z,88.74
2022-09-22T02:47:50.601Z,88.68
2022-09-22T02:50:27.148Z,88.73
2022-09-22T02:53:04.622Z,88.72
2022-09-22T02:55:32.876Z,88.44
2022-09-22T02:58:01.882Z,88.49
2022-09-22T03:00:37.078Z,88.55
2022-09-22T03:03:11.625Z,88.38
2022-09-22T03:05:43.840Z,88.42
2022-09-22T03:08:11.755Z,88.45
2022-09-22T03:10:45.028Z,88.45
2022-09-22T03:13:17.539Z,88.64
2022-09-22T03:15:49.849Z,88.69
2022-09-22T03:18:17.676Z,88.67
2022-09-22T03:20:47.202Z,88.53
2022-09-22T03:23:17.596Z,88.61
2022-09-22T03:25:45.284Z,88.78
2022-09-22T03:28:14.191Z,88.82
2022-09-22T03:30:48.490Z,88.80
2022-09-22T03:33:16.242Z,88.65
2022-09-22T03:35:48.598Z,88.66
2022-09-22T03:38:17.147Z,88.83
2022-09-22T03:40:54.256Z,88.93
2022-09-22T03:43:26.882Z,88.94
2022-09-22T03:46:05.310Z,88.83
2022-09-22T03:48:33.290Z,88.95
2022-09-22T03:51:01.029Z,89.04
2022-09-22T03:53:37.052Z,88.98
2022-09-22T03:56:13.115Z,88.91
2022-09-22T03:58:45.433Z,88.96
2022-09-22T04:01:13.813Z,89.07
2022-09-22T04:03:45.332Z,88.98
2022-09-22T04:06:17.512Z,89.01
2022-09-22T04:08:49.413Z,89.00
2022-09-22T04:11:17.137Z,88.96
2022-09-22T04:13:48.837Z,89.01
2022-09-22T04:16:21.605Z,89.01
2022-09-22T04:18:50.244Z,89.03
2022-09-22T04:21:18.184Z,89.03
2022-09-22T04:23:49.687Z,88.98
2022-09-22T04:26:17.754Z,88.93
2022-09-22T04:28:45.481Z,88.94
2022-09-22T04:31:13.242Z,88.90
2022-09-22T04:33:48.578Z,88.80
2022-09-22T04:36:16.491Z,88.88
2022-09-22T04:38:48.189Z,88.87
2022-09-22T04:41:15.878Z,88.97
2022-09-22T04:43:43.810Z,89.02
2022-09-22T04:46:14.033Z,89.01
2022-09-22T04:48:45.808Z,89.06
2022-09-22T04:51:17.809Z,89.09
2022-09-22T04:53:45.573Z,89.10
2022-09-22T04:56:15.199Z,89.08
2022-09-22T04:58:46.857Z,89.01
2022-09-22T05:01:14.671Z,88.98
2022-09-22T05:03:47.704Z,89.00
2022-09-22T05:06:15.650Z,88.98
2022-09-22T05:08:43.342Z,88.98
2022-09-22T05:11:14.957Z,88.94
2022-09-22T05:13:43.793Z,88.93
2022-09-22T05:16:14.278Z,88.91
2022-09-22T05:18:42.386Z,88.84
2022-09-22T05:21:14.439Z,88.81
2022-09-22T05:23:49.048Z,88.76
2022-09-22T05:26:17.095Z,88.73
2022-09-22T05:28:45.597Z,88.64
2022-09-22T05:31:14.396Z,88.58
2022-09-22T05:33:48.087Z,88.57
2022-09-22T05:36:19.745Z,88.55
2022-09-22T05:38:47.507Z,88.47
2022-09-22T05:41:15.489Z,88.29
2022-09-22T05:43:43.453Z,88.25
2022-09-22T05:46:11.751Z,88.14
2022-09-22T05:48:39.689Z,88.08
2022-09-22T05:51:07.535Z,88.03
2022-09-22T05:53:35.628Z,87.92
2022-09-22T05:56:03.422Z,87.88
2022-09-22T05:58:31.629Z,87.86
2022-09-22T06:00:59.415Z,87.81
2022-09-22T06:03:27.498Z,87.77
2022-09-22T06:05:55.289Z,87.70
2022-09-22T06:08:23.439Z,87.63
2022-09-22T06:10:51.534Z,87.59
2022-09-22T06:13:19.658Z,87.54
2022-09-22T06:15:48.886Z,87.57
2022-09-22T06:18:24.531Z,87.53
2022-09-22T06:20:56.293Z,87.48
2022-09-22T06:23:26.029Z,87.46
2022-09-22T06:25:59.674Z,87.45
2022-09-22T06:28:27.459Z,87.44
2022-09-22T06:30:58.953Z,87.42
2022-09-22T06:33:28.109Z,87.36
2022-09-22T06:35:58.251Z,87.29
2022-09-22T06:38:25.990Z,87.29
2022-09-22T06:40:59.202Z,87.29
2022-09-22T06:43:27.050Z,87.28
2022-09-22T06:45:59.678Z,87.24
2022-09-22T06:48:27.798Z,87.23
2022-09-22T06:50:55.873Z,87.20
2022-09-22T06:53:26.995Z,87.13
2022-09-22T06:55:56.105Z,87.10
2022-09-22T06:58:24.286Z,87.10
2022-09-22T07:00:53.953Z,87.00
2022-09-22T07:03:24.472Z,86.92
2022-09-22T07:05:54.404Z,86.89
2022-09-22T07:08:24.097Z,86.83
2022-09-22T07:11:04.296Z,86.73
2022-09-22T07:13:32.912Z,86.75
2022-09-22T07:16:02.689Z,86.75
2022-09-22T07:18:31.382Z,86.77
2022-09-22T07:21:08.223Z,86.68
2022-09-22T07:23:36.939Z,86.58
2022-09-22T07:26:07.083Z,86.45
2022-09-22T07:28:36.782Z,86.26
2022-09-22T07:31:07.584Z,86.30
2022-09-22T07:33:37.283Z,86.19
2022-09-22T07:36:12.167Z,86.17
2022-09-22T07:38:42.155Z,86.14
2022-09-22T07:41:15.653Z,86.16
2022-09-22T07:43:43.723Z,86.12
2022-09-22T07:46:13.440Z,86.03
2022-09-22T07:48:44.474Z,85.98
2022-09-22T07:51:21.813Z,85.91
2022-09-22T07:53:54.644Z,85.80
2022-09-22T07:56:29.268Z,85.49
2022-09-22T07:58:57.500Z,85.35
2022-09-22T08:01:31.531Z,85.24
2022-09-22T08:03:59.533Z,85.09
2022-09-22T08:06:28.888Z,85.09
2022-09-22T08:08:57.813Z,85.10
2022-09-22T08:11:29.469Z,85.13
2022-09-22T08:14:02.668Z,85.11
2022-09-22T08:16:33.986Z,85.03
2022-09-22T08:19:10.769Z,85.01
2022-09-22T08:21:48.317Z,84.85
2022-09-22T08:24:23.095Z,84.23
2022-09-22T08:26:55.168Z,84.18
2022-09-22T08:29:24.849Z,84.33
2022-09-22T08:31:54.528Z,84.35
2022-09-22T08:34:23.480Z,84.35
2022-09-22T08:36:52.470Z,84.29
2022-09-22T08:39:20.509Z,84.19
2022-09-22T08:41:48.312Z,84.15
2022-09-22T08:44:23.148Z,84.13
2022-09-22T08:46:53.631Z,84.13
2022-09-22T08:49:57.061Z,84.09
2022-09-22T08:52:39.068Z,84.02
2022-09-22T08:55:20.237Z,84.01
2022-09-22T08:58:16.775Z,83.90
2022-09-22T09:00:56.849Z,83.88
2022-09-22T09:03:52.239Z,83.74
2022-09-22T09:06:39.664Z,83.84
2022-09-22T09:09:21.152Z,83.85
2022-09-22T09:12:22.294Z,83.81
2022-09-22T09:15:05.520Z,83.68
2022-09-22T09:17:37.583Z,83.55
2022-09-22T09:20:20.095Z,83.67
2022-09-22T09:22:56.462Z,83.66
2022-09-22T09:25:42.794Z,83.58
2022-09-22T09:28:24.185Z,83.56
2022-09-22T09:31:05.043Z,83.53
2022-09-22T09:33:46.584Z,83.43
2022-09-22T09:36:20.817Z,83.40
2022-09-22T09:38:56.996Z,83.42
2022-09-22T09:41:32.831Z,83.35
2022-09-22T09:44:03.460Z,83.11
2022-09-22T09:46:50.869Z,82.64
2022-09-22T09:49:21.412Z,82.44
2022-09-22T09:51:53.274Z,82.34
2022-09-22T09:54:23.596Z,82.67
2022-09-22T09:57:28.096Z,82.70
2022-09-22T10:00:32.479Z,82.67
2022-09-22T10:03:22.151Z,82.29
2022-09-22T10:06:06.418Z,82.22
2022-09-22T10:08:51.132Z,82.05
2022-09-22T10:11:32.862Z,82.23
2022-09-22T10:14:01.327Z,82.25
2022-09-22T10:16:33.641Z,81.70
2022-09-22T10:19:21.318Z,81.52
2022-09-22T10:21:49.758Z,81.69
2022-09-22T10:24:31.692Z,81.75
2022-09-22T10:27:02.564Z,81.75
2022-09-22T10:29:33.696Z,81.49
2022-09-22T10:32:06.541Z,81.54
2022-09-22T10:34:37.971Z,81.41
2022-09-22T10:37:10.837Z,81.62
2022-09-22T10:39:51.326Z,81.60
2022-09-22T10:42:23.457Z,81.68
2022-09-22T10:44:53.248Z,81.54
2022-09-22T10:47:26.702Z,81.46
2022-09-22T10:50:07.420Z,81.23
2022-09-22T10:52:55.977Z,81.20
2022-09-22T10:55:30.986Z,81.27
2022-09-22T10:58:04.868Z,81.38
2022-09-22T11:00:41.213Z,81.28
2022-09-22T11:03:27.533Z,81.22
2022-09-22T11:06:33.288Z,81.40
2022-09-22T11:09:36.462Z,81.10
2022-09-22T11:12:29.648Z,81.18
2022-09-22T11:15:14.541Z,81.30
2022-09-22T11:17:53.435Z,81.19
2022-09-22T11:20:33.994Z,81.23
2022-09-22T11:23:17.255Z,80.94
2022-09-22T11:26:12.683Z,80.14
2022-09-22T11:29:07.619Z,80.27
2022-09-22T11:32:06.087Z,80.43
2022-09-22T11:34:49.273Z,80.08
2022-09-22T11:37:32.675Z,80.46
2022-09-22T11:40:03.749Z,80.34
2022-09-22T11:42:44.481Z,79.64
2022-09-22T11:45:34.465Z,79.44
2022-09-22T11:48:40.733Z,79.27
2022-09-22T11:51:34.982Z,78.31
2022-09-22T11:54:47.223Z,79.00
2022-09-22T11:57:24.105Z,79.40
2022-09-22T11:59:58.487Z,79.58
2022-09-22T12:02:41.634Z,79.04
2022-09-22T12:05:36.443Z,79.33
2022-09-22T12:08:21.431Z,79.14
2022-09-22T12:10:51.558Z,78.75
2022-09-22T12:13:31.542Z,79.32
2022-09-22T12:16:19.641Z,79.09
2022-09-22T12:18:53.832Z,79.61
2022-09-22T12:21:46.251Z,79.18
2022-09-22T12:24:14.692Z,79.11
2022-09-22T12:26:46.557Z,78.14
2022-09-22T12:29:14.793Z,77.36
2022-09-22T12:31:49.534Z,78.05
2022-09-22T12:34:21.275Z,78.35
2022-09-22T12:36:53.032Z,78.66
2022-09-22T12:39:22.778Z,78.64
2022-09-22T12:41:58.033Z,78.65
2022-09-22T12:44:27.792Z,78.91
2022-09-22T12:47:02.076Z,78.78
2022-09-22T12:49:30.999Z,79.23
2022-09-22T12:51:59.720Z,78.93
2022-09-22T12:54:37.836Z,78.44
2022-09-22T12:57:23.269Z,76.79
2022-09-22T13:00:11.510Z,76.55
2022-09-22T13:02:46.442Z,76.26
2022-09-22T13:05:26.290Z,76.17
2022-09-22T13:07:55.913Z,75.79
2022-09-22T13:10:24.274Z,75.94
2022-09-22T13:13:01.877Z,76.34
2022-09-22T13:15:34.548Z,75.73
2022-09-22T13:18:02.767Z,75.35
2022-09-22T13:20:34.377Z,75.74
2022-09-22T13:23:13.301Z,76.41
2022-09-22T13:25:44.954Z,76.50
2022-09-22T13:28:22.246Z,76.89
2022-09-22T13:31:09.528Z,77.11
2022-09-22T13:33:37.740Z,77.24
2022-09-22T13:36:16.458Z,77.49
2022-09-22T13:38:51.390Z,77.81
2022-09-22T13:41:26.526Z,78.39
2022-09-22T13:44:08.220Z,78.73
2022-09-22T13:46:46.538Z,78.81
2022-09-22T13:49:31.454Z,79.08
2022-09-22T13:52:04.945Z,79.18
2022-09-22T13:54:35.374Z,79.67
2022-09-22T13:57:07.074Z,79.76
2022-09-22T13:59:41.596Z,79.94
2022-09-22T14:02:13.468Z,80.03
2022-09-22T14:04:53.564Z,79.95
2022-09-22T14:07:23.634Z,79.84
2022-09-22T14:09:52.679Z,79.78
2022-09-22T14:12:21.410Z,79.81
2022-09-22T14:14:49.607Z,79.88
2022-09-22T14:17:24.655Z,79.81
2022-09-22T14:20:04.540Z,79.94
2022-09-22T14:22:40.441Z,79.97
2022-09-22T14:25:22.423Z,80.02
2022-09-22T14:27:55.643Z,80.34
2022-09-22T14:30:29.293Z,80.26
2022-09-22T14:33:02.356Z,80.54
2022-09-22T14:35:36.551Z,80.65
2022-09-22T14:38:15.869Z,80.64
2022-09-22T14:40:54.229Z,80.53
2022-09-22T14:43:42.582Z,80.31
2022-09-22T14:46:34.059Z,79.88
2022-09-22T14:49:36.243Z,79.20
2022-09-22T14:52:07.773Z,79.34
2022-09-22T14:54:36.432Z,79.36
2022-09-22T14:57:08.201Z,79.12
2022-09-22T14:59:57.454Z,79.15
2022-09-22T15:02:36.569Z,79.30
2022-09-22T15:05:05.526Z,79.38
2022-09-22T15:07:36.519Z,79.16
2022-09-22T15:10:20.465Z,78.86
2022-09-22T15:12:49.782Z,77.57
2022-09-22T15:15:19.844Z,77.46
2022-09-22T15:18:08.725Z,77.13
2022-09-22T15:20:47.875Z,77.46
2022-09-22T15:23:28.675Z,77.48
2022-09-22T15:25:57.183Z,77.64
2022-09-22T15:28:27.184Z,77.87
2022-09-22T15:30:55.174Z,77.49
2022-09-22T15:33:25.167Z,77.81
2022-09-22T15:35:57.125Z,77.85
2022-09-22T15:38:29.864Z,78.03
2022-09-22T15:41:01.512Z,78.17
2022-09-22T15:43:31.694Z,78.20
2022-09-22T15:46:03.259Z,78.29
2022-09-22T15:48:38.561Z,78.24
2022-09-22T15:51:16.570Z,78.08
2022-09-22T15:53:44.606Z,78.14
2022-09-22T15:56:20.940Z,78.21
2022-09-22T15:58:52.981Z,78.10
2022-09-22T16:01:20.890Z,78.28
2022-09-22T16:03:53.195Z,78.31
2022-09-22T16:06:23.510Z,78.30
2022-09-22T16:08:55.268Z,78.46
2022-09-22T16:11:31.106Z,78.58
2022-09-22T16:14:03.670Z,78.78
2022-09-22T16:16:36.940Z,78.89
2022-09-22T16:19:10.555Z,78.98
2022-09-22T16:21:49.530Z,79.04
2022-09-22T16:24:17.544Z,79.09
2022-09-22T16:26:47.108Z,79.17
2022-09-22T16:29:17.927Z,79.27
2022-09-22T16:31:47.031Z,79.32
2022-09-22T16:34:17.654Z,79.39
2022-09-22T16:36:47.681Z,79.34
2022-09-22T16:39:15.654Z,79.31
2022-09-22T16:41:47.027Z,79.32
2022-09-22T16:44:18.231Z,79.34
2022-09-22T16:46:46.233Z,79.32
2022-09-22T16:49:17.540Z,79.33
2022-09-22T16:51:49.757Z,79.35
2022-09-22T16:54:20.356Z,79.42
2022-09-22T16:56:51.006Z,79.47
2022-09-22T16:59:22.538Z,79.55
2022-09-22T17:01:52.349Z,79.65
2022-09-22T17:04:21.517Z,79.81
2022-09-22T17:06:54.700Z,79.89
2022-09-22T17:09:22.856Z,79.93
2022-09-22T17:11:54.965Z,80.03
2022-09-22T17:14:24.444Z,80.18
2022-09-22T17:16:56.839Z,80.33
2022-09-22T17:19:27.996Z,80.34
2022-09-22T17:21:59.229Z,80.56
2022-09-22T17:24:27.561Z,80.60
2022-09-22T17:26:59.899Z,80.86
2022-09-22T17:29:32.877Z,81.02
2022-09-22T17:32:05.647Z,81.11
2022-09-22T17:34:37.016Z,81.14
2022-09-22T17:37:07.935Z,81.14
2022-09-22T17:39:37.187Z,81.31
2022-09-22T17:42:06.698Z,81.41
2022-09-22T17:44:36.234Z,81.33
2022-09-22T17:47:25.811Z,81.27
2022-09-22T17:50:14.002Z,81.27
2022-09-22T17:53:01.581Z,81.32
2022-09-22T17:55:31.006Z,81.50
2022-09-22T17:58:01.613Z,81.56
2022-09-22T18:00:32.055Z,81.65
2022-09-22T18:03:00.247Z,81.66
2022-09-22T18:05:33.734Z,81.68
2022-09-22T18:08:04.745Z,81.69
2022-09-22T18:10:35.377Z,81.79
2022-09-22T18:13:06.137Z,81.92
2022-09-22T18:15:38.396Z,82.08
2022-09-22T18:18:07.900Z,82.21
2022-09-22T18:20:35.868Z,82.19
2022-09-22T18:23:07.338Z,82.28
2022-09-22T18:25:36.926Z,82.43
2022-09-22T18:28:08.379Z,82.56
2022-09-22T18:30:41.690Z,82.62
2022-09-22T18:33:11.150Z,82.83
2022-09-22T18:35:41.283Z,83.02
2022-09-22T18:38:12.360Z,83.14
2022-09-22T18:40:41.965Z,83.21
2022-09-22T18:43:10.895Z,83.27
2022-09-22T18:45:38.849Z,83.31
2022-09-22T18:48:09.836Z,83.38
2022-09-22T18:50:39.523Z,83.46
2022-09-22T18:53:07.468Z,83.48
2022-09-22T18:55:37.100Z,83.48
2022-09-22T18:58:05.046Z,83.49
2022-09-22T19:00:34.485Z,83.47
2022-09-22T19:03:03.668Z,83.44
2022-09-22T19:05:33.116Z,83.46
2022-09-22T19:08:03.497Z,83.49
2022-09-22T19:10:31.949Z,83.51
2022-09-22T19:13:00.731Z,83.51
2022-09-22T19:15:30.121Z,83.54
2022-09-22T19:17:58.250Z,83.63
2022-09-22T19:20:28.461Z,83.70
2022-09-22T19:22:57.020Z,83.78
2022-09-22T19:25:27.254Z,83.85
2022-09-22T19:27:55.372Z,83.88
2022-09-22T19:30:26.558Z,83.97
2022-09-22T19:32:56.343Z,84.07
2022-09-22T19:35:28.471Z,84.15
2022-09-22T19:37:57.989Z,84.24
2022-09-22T19:40:27.433Z,84.34
2022-09-22T19:42:56.265Z,84.42
2022-09-22T19:45:26.686Z,84.51
2022-09-22T19:47:58.615Z,84.53
2022-09-22T19:50:27.632Z,84.51
2022-09-22T19:52:56.744Z,84.51
2022-09-22T19:55:25.802Z,84.49
2022-09-22T19:57:56.740Z,84.39
2022-09-22T20:00:28.654Z,84.08
2022-09-22T20:03:01.379Z,84.03
2022-09-22T20:05:37.236Z,84.04
2022-09-22T20:08:08.365Z,84.17
2022-09-22T20:10:37.663Z,84.08
2022-09-22T20:13:25.621Z,84.11
2022-09-22T20:15:53.661Z,84.24
2022-09-22T20:18:22.042Z,84.32
2022-09-22T20:20:53.581Z,84.44
2022-09-22T20:23:22.016Z,84.47
2022-09-22T20:25:52.226Z,84.46
2022-09-22T20:28:22.407Z,84.34
2022-09-22T20:30:50.750Z,84.26
2022-09-22T20:33:24.187Z,84.25
2022-09-22T20:35:57.204Z,84.08
2022-09-22T20:38:25.570Z,83.99
2022-09-22T20:40:53.865Z,84.00
2022-09-22T20:43:22.602Z,83.96
2022-09-22T20:45:50.865Z,83.92
2022-09-22T20:48:19.638Z,83.92
2022-09-22T20:51:02.820Z,83.79
2022-09-22T20:53:37.471Z,83.74
2022-09-22T20:56:11.808Z,83.75
2022-09-22T20:58:46.827Z,83.77
2022-09-22T21:01:20.113Z,83.67
2022-09-22T21:03:50.876Z,83.65
2022-09-22T21:06:27.349Z,83.67
2022-09-22T21:09:13.406Z,83.69
2022-09-22T21:11:48.620Z,83.59
2022-09-22T21:14:16.415Z,83.61
2022-09-22T21:16:52.166Z,83.66
2022-09-22T21:19:22.097Z,83.61
2022-09-22T21:21:50.734Z,83.60
2022-09-22T21:24:18.376Z,83.61
2022-09-22T21:26:49.876Z,83.57
2022-09-22T21:29:17.670Z,83.54
2022-09-22T21:31:51.118Z,83.61
2022-09-22T21:34:18.936Z,83.67
2022-09-22T21:36:46.968Z,83.72
2022-09-22T21:39:19.551Z,83.78
2022-09-22T21:41:47.278Z,83.66
2022-09-22T21:44:15.178Z,83.64
2022-09-22T21:46:45.652Z,83.60
2022-09-22T21:49:16.043Z,83.72
2022-09-22T21:51:47.363Z,83.84
2022-09-22T21:54:23.170Z,83.71
2022-09-22T21:56:54.118Z,83.73
2022-09-22T21:59:21.851Z,83.67
2022-09-22T22:01:49.669Z,83.63
2022-09-22T22:04:20.793Z,83.77
2022-09-22T22:06:51.798Z,83.72
2022-09-22T22:09:24.173Z,83.73
2022-09-22T22:11:59.836Z,83.67
2022-09-22T22:14:35.706Z,83.65
2022-09-22T22:17:07.395Z,83.65
2022-09-22T22:19:36.740Z,83.65
2022-09-22T22:22:06.072Z,83.69
2022-09-22T22:24:43.445Z,83.75
2022-09-22T22:27:14.607Z,83.87
2022-09-22T22:29:43.944Z,83.98
2022-09-22T22:32:14.805Z,84.02
2022-09-22T22:34:42.490Z,84.07
2022-09-22T22:37:11.508Z,84.06
2022-09-22T22:39:41.145Z,84.15
2022-09-22T22:42:09.054Z,84.20
2022-09-22T22:44:37.007Z,84.23
2022-09-22T22:47:11.601Z,84.26
2022-09-22T22:49:40.101Z,84.27
2022-09-22T22:52:08.009Z,84.27
2022-09-22T22:54:37.344Z,84.28
2022-09-22T22:57:09.066Z,84.31
2022-09-22T22:59:36.936Z,84.29
2022-09-22T23:02:04.904Z,84.31
2022-09-22T23:04:36.289Z,84.34
2022-09-22T23:07:04.087Z,84.25
2022-09-22T23:09:33.076Z,84.24
2022-09-22T23:12:03.166Z,84.23
2022-09-22T23:14:31.141Z,84.29
2022-09-22T23:16:58.905Z,84.34
2022-09-22T23:19:26.934Z,84.34
2022-09-22T23:21:57.496Z,84.40
2022-09-22T23:24:25.298Z,84.29
2022-09-22T23:26:57.638Z,84.24
2022-09-22T23:29:25.546Z,84.22
2022-09-22T23:31:55.149Z,84.38
2022-09-22T23:34:27.781Z,84.48
2022-09-22T23:36:55.548Z,84.51
2022-09-22T23:39:23.467Z,84.50
2022-09-22T23:41:52.842Z,84.57
2022-09-22T23:44:23.681Z,84.68
2022-09-22T23:46:54.841Z,84.80
2022-09-22T23:49:22.723Z,84.90
2022-09-22T23:51:52.305Z,84.98
2022-09-22T23:54:20.010Z,85.05
2022-09-22T23:56:51.103Z,85.09
2022-09-22T23:59:18.761Z,85.12
